createdAt,value
2018-01-16T19:49:49.540Z,60.88
2018-01-16T19:50:49.480Z,60.57
2018-01-16T19:51:49.480Z,60.14
2018-01-16T19:52:49.479Z,58.89
2018-01-16T19:53:49.478Z,60.32
2018-01-16T19:54:49.479Z,58.75
2018-01-16T19:55:49.528Z,58.18
2018-01-16T19:56:49.484Z,57.24
2018-01-16T19:57:49.490Z,56.58
2018-01-16T19:58:49.482Z,56.46
2018-01-16T19:59:49.479Z,56.37
2018-01-16T20:00:49.480Z,55.98
2018-01-16T20:01:49.525Z,55.97
2018-01-16T20:02:49.494Z,56.18
2018-01-16T20:03:49.486Z,55.51
2018-01-16T20:04:49.487Z,55.65
2018-01-16T20:05:49.489Z,55.72
2018-01-16T20:06:49.505Z,55.36
2018-01-16T20:07:49.624Z,55.37
2018-01-16T20:08:49.491Z,54.8
2018-01-16T20:09:49.497Z,54.77
2018-01-16T20:10:49.492Z,55.71
2018-01-16T20:11:49.493Z,54.7
2018-01-16T20:12:49.500Z,54.54
2018-01-16T20:13:49.531Z,54.77
2018-01-16T20:14:49.498Z,55.29
2018-01-16T20:15:49.491Z,54.67
2018-01-16T20:16:49.508Z,54.33
2018-01-16T20:17:49.502Z,54.59
2018-01-16T20:18:49.496Z,54.53
2018-01-16T20:19:49.618Z,54.04
2018-01-16T20:20:49.511Z,54.66
2018-01-16T20:21:49.503Z,54.98
2018-01-16T20:22:49.512Z,54.76
2018-01-16T20:23:49.510Z,54.47
2018-01-16T20:24:49.518Z,54.61
2018-01-16T20:25:49.535Z,54.25
2018-01-16T20:26:49.508Z,54.33
2018-01-16T20:27:49.515Z,54.74
2018-01-16T20:28:49.509Z,54.57
2018-01-16T20:29:49.512Z,54.82
2018-01-16T20:30:49.505Z,54.83
2018-01-16T20:31:49.552Z,54.49
2018-01-16T20:32:49.514Z,54.77
2018-01-16T20:33:49.510Z,54.4
2018-01-16T20:34:49.514Z,55.02
2018-01-16T20:35:49.507Z,55.19
2018-01-16T20:36:49.513Z,55.12
2018-01-16T20:37:49.556Z,55.21
2018-01-16T20:38:49.518Z,54.74
2018-01-16T20:39:49.516Z,55.01
2018-01-16T20:40:49.523Z,55.31
2018-01-16T20:41:49.519Z,54.99
2018-01-16T20:42:49.515Z,54.94
2018-01-16T20:43:49.547Z,54.97
2018-01-16T20:44:49.517Z,54.7
2018-01-16T20:45:49.523Z,55.28
2018-01-16T20:46:49.516Z,55.19
2018-01-16T20:47:49.523Z,55.27
2018-01-16T20:48:49.551Z,54.66
2018-01-16T20:49:49.526Z,54.7
2018-01-16T20:50:49.522Z,54.64
2018-01-16T20:51:49.525Z,55.04
2018-01-16T20:52:49.523Z,54.64
2018-01-16T20:53:49.530Z,55.15
2018-01-16T20:54:49.561Z,55.05
2018-01-16T20:55:49.528Z,54.78
2018-01-16T20:56:49.522Z,54.91
2018-01-16T20:57:49.540Z,54.69
2018-01-16T20:58:49.537Z,54.92
2018-01-16T20:59:49.533Z,54.69
2018-01-16T21:00:49.661Z,55.06
2018-01-16T21:01:49.531Z,54.65
2018-01-16T21:02:49.536Z,54.82
2018-01-16T21:03:49.540Z,54.99
2018-01-16T21:04:49.536Z,54.66
2018-01-16T21:05:49.543Z,55.03
2018-01-16T21:06:49.575Z,54.92
2018-01-16T21:07:49.539Z,54.58
2018-01-16T21:08:49.532Z,54.87
2018-01-16T21:09:49.536Z,54.8
2018-01-16T21:10:49.541Z,54.43
2018-01-16T21:11:49.546Z,54.6
2018-01-16T21:12:49.572Z,54.91
2018-01-16T21:13:49.540Z,54.46
2018-01-16T21:14:49.541Z,54.63
2018-01-16T21:15:49.539Z,54.75
2018-01-16T21:16:49.545Z,54.39
2018-01-16T21:17:49.553Z,54.4
2018-01-16T21:18:49.591Z,54.38
2018-01-16T21:19:49.550Z,54.76
2018-01-16T21:20:49.545Z,54.62
2018-01-16T21:21:49.553Z,54.29
2018-01-16T21:22:49.553Z,54.38
2018-01-16T21:23:49.612Z,54.71
2018-01-16T21:24:49.583Z,54.61
2018-01-16T21:25:49.555Z,54.31
2018-01-16T21:26:49.549Z,54.66
2018-01-16T21:27:49.802Z,54.88
2018-01-16T21:28:49.582Z,54.32
2018-01-16T21:29:49.573Z,54.27
2018-01-16T21:30:49.589Z,54.21
2018-01-16T21:31:49.556Z,54.26
2018-01-16T21:32:49.552Z,54.62
2018-01-16T21:33:49.559Z,54.58
2018-01-16T21:34:49.559Z,54.37
2018-01-16T21:35:49.657Z,54.54
2018-01-16T21:36:49.678Z,54.63
2018-01-16T21:37:49.583Z,54.6
2018-01-16T21:38:49.571Z,55.08
2018-01-16T21:39:49.562Z,54.7
2018-01-16T21:40:49.559Z,55.08
2018-01-16T21:41:49.562Z,54.67
2018-01-16T21:42:49.633Z,54.71
2018-01-16T21:43:49.742Z,54.69
2018-01-16T21:44:49.564Z,54.68
2018-01-16T21:45:49.608Z,54.64
2018-01-16T21:46:49.564Z,54.44
2018-01-16T21:47:49.565Z,54.55
2018-01-16T21:48:49.619Z,55.04
2018-01-16T21:49:49.770Z,55.56
2018-01-16T21:50:49.718Z,55.36
2018-01-16T21:51:49.570Z,55.43
2018-01-16T21:52:49.577Z,55.11
2018-01-16T21:53:49.718Z,54.97
2018-01-16T21:54:49.780Z,54.84
2018-01-16T21:55:49.572Z,54.56
2018-01-16T21:56:49.685Z,55.14
2018-01-16T21:57:49.741Z,54.86
2018-01-16T21:58:49.733Z,55
2018-01-16T21:59:49.914Z,55.13
2018-01-16T22:00:49.676Z,55.18
2018-01-16T22:01:49.582Z,54.41
2018-01-16T22:02:49.582Z,54.88
2018-01-16T22:03:49.600Z,54.69
2018-01-16T22:04:49.580Z,54.65
2018-01-16T22:05:49.695Z,54.31
2018-01-16T22:06:49.612Z,54.29
2018-01-16T22:07:49.581Z,54.3
2018-01-16T22:08:49.601Z,54.79
2018-01-16T22:09:49.615Z,54.58
2018-01-16T22:10:49.706Z,54.73
2018-01-16T22:11:49.597Z,54.79
2018-01-16T22:12:49.585Z,55.1
2018-01-16T22:13:49.596Z,54.53
2018-01-16T22:14:49.590Z,54.94
2018-01-16T22:15:49.590Z,54.98
2018-01-16T22:16:49.708Z,54.82
2018-01-16T22:17:49.590Z,54.29
2018-01-16T22:18:49.593Z,54.87
2018-01-16T22:19:49.599Z,54.53
2018-01-16T22:20:49.593Z,54.71
2018-01-16T22:21:49.591Z,54.69
2018-01-16T22:22:49.626Z,54.7
2018-01-16T22:23:49.598Z,54.38
2018-01-16T22:24:49.600Z,54.71
2018-01-16T22:25:49.602Z,54.72
2018-01-16T22:26:49.600Z,54.4
2018-01-16T22:27:49.600Z,54.32
2018-01-16T22:28:49.631Z,54.26
2018-01-16T22:29:49.611Z,54.3
2018-01-16T22:30:49.602Z,54.26
2018-01-16T22:31:49.600Z,54.23
2018-01-16T22:32:49.616Z,54.73
2018-01-16T22:33:49.606Z,54.6
2018-01-16T22:34:49.731Z,54.3
2018-01-16T22:35:49.608Z,54.67
2018-01-16T22:36:49.615Z,54.46
2018-01-16T22:37:49.605Z,54.22
2018-01-16T22:38:49.636Z,54.6
2018-01-16T22:39:49.607Z,54.35
2018-01-16T22:40:49.647Z,54.62
2018-01-16T22:41:49.608Z,54.31
2018-01-16T22:42:49.615Z,54.27
2018-01-16T22:43:49.618Z,54.3
2018-01-16T22:44:49.614Z,54.78
2018-01-16T22:45:49.614Z,54.78
2018-01-16T22:46:49.662Z,54.49
2018-01-16T22:47:49.609Z,54.71
2018-01-16T22:48:49.616Z,54.53
2018-01-16T22:49:49.619Z,54.75
2018-01-16T22:50:49.618Z,54.89
2018-01-16T22:51:49.619Z,54.47
2018-01-16T22:52:49.658Z,54.61
2018-01-16T22:53:49.632Z,55.01
2018-01-16T22:54:49.623Z,54.96
2018-01-16T22:55:49.623Z,54.59
2018-01-16T22:56:49.623Z,54.79
2018-01-16T22:57:49.628Z,54.49
2018-01-16T22:58:49.738Z,54.93
2018-01-16T22:59:49.623Z,54.73
2018-01-16T23:00:49.630Z,55
2018-01-16T23:01:49.629Z,54.64
2018-01-16T23:02:49.622Z,54.89
2018-01-16T23:03:49.709Z,55.32
2018-01-16T23:04:49.668Z,54.86
2018-01-16T23:05:49.631Z,55.2
2018-01-16T23:06:49.636Z,55.29
2018-01-16T23:07:49.632Z,55.32
2018-01-16T23:08:49.634Z,55.34
2018-01-16T23:09:49.640Z,55.26
2018-01-16T23:10:49.667Z,55.22
2018-01-16T23:11:49.638Z,55.19
2018-01-16T23:12:49.634Z,55.38
2018-01-16T23:13:49.635Z,54.99
2018-01-16T23:14:49.725Z,55.21
2018-01-16T23:15:49.637Z,54.93
2018-01-16T23:16:49.668Z,54.96
2018-01-16T23:17:49.690Z,55.15
2018-01-16T23:18:49.642Z,55.54
2018-01-16T23:19:49.642Z,55.12
2018-01-16T23:20:49.642Z,55.21
2018-01-16T23:21:49.645Z,55.02
2018-01-16T23:22:49.687Z,55.09
2018-01-16T23:23:49.647Z,55.41
2018-01-16T23:24:49.641Z,55.41
2018-01-16T23:25:49.646Z,55.41
2018-01-16T23:26:49.653Z,55.46
2018-01-16T23:27:49.647Z,55.14
2018-01-16T23:28:49.695Z,55.17
2018-01-16T23:29:49.650Z,55.12
2018-01-16T23:30:49.645Z,55.52
2018-01-16T23:31:49.658Z,55.59
2018-01-16T23:32:49.653Z,55.32
2018-01-16T23:33:49.650Z,55.18
2018-01-16T23:34:49.687Z,55.14
2018-01-16T23:35:49.650Z,55.18
2018-01-16T23:36:49.652Z,55.41
2018-01-16T23:37:49.677Z,55.21
2018-01-16T23:38:49.652Z,55.25
2018-01-16T23:39:49.659Z,55.24
2018-01-16T23:40:49.693Z,55.73
2018-01-16T23:41:49.655Z,55.29
2018-01-16T23:42:49.651Z,55.12
2018-01-16T23:43:49.660Z,55.6
2018-01-16T23:44:49.712Z,55.27
2018-01-16T23:45:49.655Z,55.51
2018-01-16T23:46:49.691Z,55.85
2018-01-16T23:47:49.657Z,55.27
2018-01-16T23:48:49.664Z,55.25
2018-01-16T23:49:49.661Z,55.32
2018-01-16T23:50:49.669Z,55.55
2018-01-16T23:51:49.666Z,55.26
2018-01-16T23:52:49.705Z,55.63
2018-01-16T23:53:49.663Z,55.33
2018-01-16T23:54:49.670Z,55.84
2018-01-16T23:55:49.672Z,55.35
2018-01-16T23:56:49.666Z,55.61
2018-01-16T23:57:49.672Z,55.49
2018-01-16T23:58:49.704Z,55.99
2018-01-16T23:59:49.671Z,55.75
